createdAt,value
2023-05-15T00:01:55.100Z,3.20
2023-05-15T00:04:23.351Z,3.30
2023-05-15T00:07:11.866Z,3.60
2023-05-15T00:09:44.136Z,3.30
2023-05-15T00:12:12.246Z,3.50
2023-05-15T00:14:44.328Z,3.60
2023-05-15T00:17:12.800Z,3.40
2023-05-15T00:19:41.018Z,3.40
2023-05-15T00:22:09.266Z,3.00
2023-05-15T00:24:41.357Z,2.70
2023-05-15T00:27:09.952Z,2.80
2023-05-15T00:29:38.454Z,2.50
2023-05-15T00:32:08.041Z,2.80
2023-05-15T00:34:39.998Z,2.80
2023-05-15T00:37:08.871Z,3.20
2023-05-15T00:39:56.930Z,3.00
2023-05-15T00:42:27.568Z,2.60
2023-05-15T00:45:02.130Z,2.90
2023-05-15T00:47:31.318Z,2.70
2023-05-15T00:50:00.422Z,2.60
2023-05-15T00:52:29.943Z,2.90
2023-05-15T00:55:18.311Z,3.10
2023-05-15T00:57:48.288Z,2.70
2023-05-15T01:00:18.744Z,3.10
2023-05-15T01:02:47.264Z,2.80
2023-05-15T01:05:18.238Z,2.90
2023-05-15T01:07:57.911Z,2.60
2023-05-15T01:10:26.499Z,2.70
2023-05-15T01:12:57.583Z,3.60
2023-05-15T01:15:34.469Z,2.80
2023-05-15T01:18:03.650Z,3.00
2023-05-15T01:20:47.959Z,2.80
2023-05-15T01:26:34.497Z,3.00
2023-05-15T01:29:16.359Z,3.40
2023-05-15T01:31:48.318Z,3.40
2023-05-15T01:34:19.939Z,2.90
2023-05-15T01:36:57.397Z,3.10
2023-05-15T01:39:29.109Z,3.40
2023-05-15T01:42:19.731Z,3.10
2023-05-15T01:45:12.619Z,3.20
2023-05-15T01:47:45.710Z,2.90
2023-05-15T01:50:17.285Z,2.90
2023-05-15T01:52:50.608Z,2.90
2023-05-15T01:55:30.925Z,2.80
2023-05-15T01:58:01.599Z,2.90
2023-05-15T02:00:30.578Z,2.70
2023-05-15T02:02:59.795Z,2.90
2023-05-15T02:05:38.636Z,2.60
2023-05-15T02:08:08.240Z,2.80
2023-05-15T02:10:37.380Z,2.60
2023-05-15T02:13:09.354Z,2.60
2023-05-15T02:15:40.197Z,2.70
2023-05-15T02:18:08.450Z,2.70
2023-05-15T02:20:36.692Z,3.60
2023-05-15T02:23:04.875Z,2.70
2023-05-15T02:25:52.624Z,2.50
2023-05-15T02:28:32.432Z,2.50
2023-05-15T02:31:27.520Z,2.20
2023-05-15T02:34:29.619Z,2.70
2023-05-15T02:37:04.867Z,2.20
2023-05-15T02:39:34.389Z,2.60
2023-05-15T02:42:03.321Z,3.30
2023-05-15T02:44:33.072Z,3.10
2023-05-15T02:47:09.850Z,2.90
2023-05-15T02:49:39.433Z,2.80
2023-05-15T02:52:15.744Z,2.90
2023-05-15T02:54:44.228Z,3.00
2023-05-15T02:57:15.235Z,3.20
2023-05-15T02:59:43.566Z,3.20
2023-05-15T03:02:11.808Z,2.90
2023-05-15T03:04:40.094Z,2.80
2023-05-15T03:07:28.446Z,3.30
2023-05-15T03:09:56.538Z,3.30
2023-05-15T03:12:44.660Z,3.10
2023-05-15T03:15:12.828Z,3.10
2023-05-15T03:17:41.131Z,3.40
2023-05-15T03:20:09.488Z,2.90
2023-05-15T03:22:41.975Z,2.70
2023-05-15T03:25:13.032Z,3.00
2023-05-15T03:27:41.352Z,3.00
2023-05-15T03:30:09.988Z,3.10
2023-05-15T03:32:42.273Z,3.60
2023-05-15T03:35:11.014Z,3.10
2023-05-15T03:37:43.980Z,3.60
2023-05-15T03:40:13.138Z,3.20
2023-05-15T03:42:41.273Z,4.10
2023-05-15T03:45:09.833Z,3.40
2023-05-15T03:47:38.683Z,3.30
2023-05-15T03:50:07.269Z,3.30
2023-05-15T03:52:36.104Z,3.70
2023-05-15T03:55:05.491Z,3.10
2023-05-15T03:57:37.608Z,3.40
2023-05-15T04:00:10.437Z,3.50
2023-05-15T04:02:45.626Z,3.40
2023-05-15T04:05:14.129Z,4.40
2023-05-15T04:07:46.146Z,3.40
2023-05-15T04:10:14.372Z,3.40
2023-05-15T04:12:42.659Z,3.80
2023-05-15T04:15:15.475Z,3.70
2023-05-15T04:17:49.324Z,3.80
2023-05-15T04:20:21.317Z,3.90
2023-05-15T04:22:53.738Z,3.10
2023-05-15T04:25:22.119Z,3.40
2023-05-15T04:27:50.610Z,3.20
2023-05-15T04:30:18.746Z,3.90
2023-05-15T04:32:52.187Z,3.70
2023-05-15T04:35:20.483Z,2.70
2023-05-15T04:37:48.930Z,2.60
2023-05-15T04:40:17.105Z,2.80
2023-05-15T04:42:45.230Z,2.40
2023-05-15T04:45:15.037Z,3.10
2023-05-15T04:47:59.353Z,2.90
2023-05-15T04:53:15.581Z,3.60
2023-05-15T04:55:45.828Z,3.10
2023-05-15T04:58:14.042Z,3.60
2023-05-15T05:00:51.238Z,3.60
2023-05-15T05:03:19.551Z,4.60
2023-05-15T05:06:08.083Z,3.90
2023-05-15T05:08:36.759Z,3.40
2023-05-15T05:11:05.498Z,3.30
2023-05-15T05:13:33.643Z,3.00
2023-05-15T05:16:21.875Z,3.70
2023-05-15T05:18:50.803Z,3.10
2023-05-15T05:21:22.883Z,3.20
2023-05-15T05:23:51.058Z,3.00
2023-05-15T05:26:27.383Z,2.70
2023-05-15T05:28:55.708Z,3.40
2023-05-15T05:31:26.809Z,3.20
2023-05-15T05:33:55.519Z,3.00
2023-05-15T05:36:27.555Z,2.70
2023-05-15T05:38:55.736Z,2.80
2023-05-15T05:41:23.915Z,3.20
2023-05-15T05:43:52.070Z,2.30
2023-05-15T05:46:20.313Z,2.10
2023-05-15T05:48:48.475Z,2.30
2023-05-15T05:51:28.919Z,2.20
2023-05-15T05:54:37.606Z,2.40
2023-05-15T05:57:11.155Z,2.70
2023-05-15T05:59:39.266Z,2.10
2023-05-15T06:02:11.582Z,2.20
2023-05-15T06:04:39.936Z,2.50
2023-05-15T06:07:16.324Z,2.00
2023-05-15T06:09:46.129Z,2.20
2023-05-15T06:12:23.242Z,2.50
2023-05-15T06:14:51.773Z,2.40
2023-05-15T06:17:27.831Z,2.60
2023-05-15T06:19:56.011Z,2.30
2023-05-15T06:22:28.026Z,2.50
2023-05-15T06:24:56.078Z,2.20
2023-05-15T06:27:33.806Z,1.90
2023-05-15T06:30:01.966Z,2.00
2023-05-15T06:32:38.166Z,2.30
2023-05-15T06:35:06.978Z,2.00
2023-05-15T06:37:38.876Z,2.30
2023-05-15T06:40:08.057Z,2.30
2023-05-15T06:42:36.253Z,2.10
2023-05-15T06:45:04.877Z,2.30
2023-05-15T06:48:12.941Z,2.20
2023-05-15T06:50:41.201Z,2.30
2023-05-15T06:53:30.920Z,2.30
2023-05-15T06:55:59.177Z,1.80
2023-05-15T06:58:47.298Z,2.10
2023-05-15T07:01:21.611Z,2.10
2023-05-15T07:03:49.827Z,2.10
2023-05-15T07:06:18.101Z,2.30
2023-05-15T07:08:46.330Z,2.30
2023-05-15T07:11:14.550Z,2.40
2023-05-15T07:13:42.682Z,2.10
2023-05-15T07:16:11.654Z,2.60
2023-05-15T07:18:39.943Z,2.80
2023-05-15T07:21:28.167Z,2.30
2023-05-15T07:23:56.401Z,2.00
2023-05-15T07:26:34.271Z,2.30
2023-05-15T07:29:05.029Z,2.70
2023-05-15T07:31:33.859Z,2.40
2023-05-15T07:34:02.143Z,2.40
2023-05-15T07:36:30.581Z,2.30
2023-05-15T07:38:58.745Z,2.30
2023-05-15T07:41:27.003Z,2.50
2023-05-15T07:43:55.238Z,2.40
2023-05-15T07:46:23.479Z,1.90
2023-05-15T07:48:51.773Z,2.20
2023-05-15T07:51:19.934Z,2.70
2023-05-15T07:53:48.083Z,2.30
2023-05-15T07:56:16.825Z,2.40
2023-05-15T07:58:45.180Z,2.30
2023-05-15T08:01:13.498Z,2.30
2023-05-15T08:03:41.777Z,2.20
2023-05-15T08:06:10.070Z,1.90
2023-05-15T08:08:38.203Z,2.20
2023-05-15T08:11:06.558Z,2.70
2023-05-15T08:13:34.749Z,2.30
2023-05-15T08:16:03.935Z,2.60
2023-05-15T08:18:32.156Z,2.20
2023-05-15T08:21:00.683Z,2.80
2023-05-15T08:23:29.741Z,2.10
2023-05-15T08:25:57.950Z,1.80
2023-05-15T08:28:26.138Z,1.80
2023-05-15T08:30:54.593Z,2.00
2023-05-15T08:33:22.836Z,2.40
2023-05-15T08:35:52.183Z,2.00
2023-05-15T08:38:20.349Z,3.60
2023-05-15T08:40:52.948Z,2.20
2023-05-15T08:43:22.891Z,2.10
2023-05-15T08:45:51.994Z,2.20
2023-05-15T08:48:23.202Z,2.40
2023-05-15T08:50:52.965Z,2.20
2023-05-15T08:53:21.363Z,2.20
2023-05-15T08:55:50.552Z,1.90
2023-05-15T08:58:21.590Z,1.90
2023-05-15T09:00:50.084Z,2.00
2023-05-15T09:03:20.230Z,1.80
2023-05-15T09:05:49.975Z,2.10
2023-05-15T09:08:19.505Z,2.10
2023-05-15T09:10:49.465Z,2.50
2023-05-15T09:13:17.773Z,1.90
2023-05-15T09:15:48.591Z,2.30
2023-05-15T09:18:18.612Z,1.50
2023-05-15T09:20:46.784Z,1.90
2023-05-15T09:23:26.683Z,2.20
2023-05-15T09:25:57.081Z,2.30
2023-05-15T09:28:34.007Z,2.30
2023-05-15T09:31:05.960Z,2.10
2023-05-15T09:33:39.647Z,2.40
2023-05-15T09:36:09.045Z,1.60
2023-05-15T09:38:42.956Z,1.90
2023-05-15T09:41:11.849Z,1.70
2023-05-15T09:43:41.498Z,1.80
2023-05-15T09:46:13.239Z,1.70
2023-05-15T09:48:41.597Z,1.90
2023-05-15T09:51:18.251Z,1.70
2023-05-15T09:53:53.454Z,2.40
2023-05-15T09:56:22.366Z,2.00
2023-05-15T09:58:57.799Z,1.90
2023-05-15T10:01:27.695Z,1.70
2023-05-15T10:04:06.493Z,1.80
2023-05-15T10:06:43.122Z,1.60
2023-05-15T10:09:13.068Z,1.60
2023-05-15T10:11:50.345Z,2.10
2023-05-15T10:14:20.208Z,1.80
2023-05-15T10:16:48.759Z,2.00
2023-05-15T10:19:22.700Z,1.90
2023-05-15T10:21:54.042Z,1.70
2023-05-15T10:24:25.860Z,1.60
2023-05-15T10:26:56.022Z,1.80
2023-05-15T10:29:27.398Z,2.00
2023-05-15T10:31:56.226Z,1.80
2023-05-15T10:34:25.818Z,2.10
2023-05-15T10:36:54.922Z,1.60
2023-05-15T10:39:23.980Z,1.70
2023-05-15T10:41:54.309Z,1.80
2023-05-15T10:44:23.697Z,2.20
2023-05-15T10:46:53.139Z,1.50
2023-05-15T10:49:21.684Z,1.80
2023-05-15T10:51:49.927Z,1.60
2023-05-15T10:54:18.197Z,1.60
2023-05-15T10:56:46.362Z,1.50
2023-05-15T10:59:14.660Z,1.90
2023-05-15T11:01:43.401Z,2.10
2023-05-15T11:04:19.405Z,2.00
2023-05-15T11:06:49.585Z,2.00
2023-05-15T11:09:27.998Z,1.50
2023-05-15T11:11:58.231Z,1.90
2023-05-15T11:14:28.098Z,2.90
2023-05-15T11:16:58.320Z,2.10
2023-05-15T11:19:29.349Z,1.50
2023-05-15T11:22:17.453Z,1.90
2023-05-15T11:24:59.765Z,1.30
2023-05-15T11:27:45.844Z,1.80
2023-05-15T11:30:15.398Z,1.80
2023-05-15T11:32:47.181Z,1.50
2023-05-15T11:35:18.544Z,1.30
2023-05-15T11:37:49.930Z,1.30
2023-05-15T11:40:29.433Z,2.00
2023-05-15T11:43:16.555Z,1.80
2023-05-15T11:45:49.149Z,1.50
2023-05-15T11:48:18.370Z,1.40
2023-05-15T11:50:47.020Z,1.40
2023-05-15T11:53:15.822Z,1.70
2023-05-15T11:55:44.672Z,1.90
2023-05-15T11:58:19.499Z,1.70
2023-05-15T12:00:49.428Z,1.40
2023-05-15T12:03:19.733Z,1.70
2023-05-15T12:05:58.098Z,1.50
2023-05-15T12:08:42.671Z,1.30
2023-05-15T12:11:14.069Z,2.10
2023-05-15T12:13:42.154Z,1.50
2023-05-15T12:16:10.743Z,1.50
2023-05-15T12:18:39.198Z,1.30
2023-05-15T12:21:07.463Z,1.70
2023-05-15T12:23:35.661Z,1.50
2023-05-15T12:26:04.241Z,1.40
2023-05-15T12:28:35.800Z,1.50
2023-05-15T12:31:04.359Z,1.60
2023-05-15T12:33:32.894Z,1.30
2023-05-15T12:36:01.930Z,1.50
2023-05-15T12:38:30.972Z,1.80
2023-05-15T12:40:59.469Z,1.50
2023-05-15T12:43:28.101Z,1.90
2023-05-15T12:45:57.620Z,2.00
2023-05-15T12:48:33.157Z,1.50
2023-05-15T12:51:07.533Z,1.60
2023-05-15T12:53:36.513Z,1.50
2023-05-15T12:56:05.185Z,1.50
2023-05-15T12:58:33.909Z,1.70
2023-05-15T13:01:03.698Z,1.80
2023-05-15T13:03:32.882Z,1.80
2023-05-15T13:06:03.751Z,1.30
2023-05-15T13:08:32.119Z,1.50
2023-05-15T13:11:01.214Z,1.30
2023-05-15T13:13:44.252Z,1.50
2023-05-15T13:16:22.869Z,1.70
2023-05-15T13:18:52.095Z,1.70
2023-05-15T13:21:20.528Z,1.90
2023-05-15T13:23:48.901Z,1.70
2023-05-15T13:26:17.252Z,1.60
2023-05-15T13:28:45.545Z,1.40
2023-05-15T13:31:13.836Z,1.60
2023-05-15T13:33:42.119Z,1.50
2023-05-15T13:36:10.417Z,1.80
2023-05-15T13:38:38.566Z,1.60
2023-05-15T13:41:06.812Z,1.40
2023-05-15T13:43:34.927Z,1.10
2023-05-15T13:46:03.194Z,1.60
2023-05-15T13:48:32.344Z,1.50
2023-05-15T13:51:01.015Z,1.40
2023-05-15T13:53:29.163Z,1.30
2023-05-15T13:55:57.484Z,1.80
2023-05-15T13:58:26.944Z,1.70
2023-05-15T14:00:55.253Z,1.80
2023-05-15T14:03:23.558Z,1.60
2023-05-15T14:05:52.009Z,1.60
2023-05-15T14:08:20.224Z,1.70
2023-05-15T14:10:48.363Z,1.40
2023-05-15T14:13:16.579Z,1.20
2023-05-15T14:15:44.758Z,1.60
2023-05-15T14:18:13.081Z,2.20
2023-05-15T14:20:41.419Z,1.70
2023-05-15T14:23:10.289Z,1.50
2023-05-15T14:25:38.957Z,1.40
2023-05-15T14:28:07.561Z,1.50
2023-05-15T14:30:36.195Z,1.70
2023-05-15T14:33:04.713Z,1.20
2023-05-15T14:35:33.346Z,1.70
2023-05-15T14:38:01.637Z,2.00
2023-05-15T14:40:29.998Z,1.70
2023-05-15T14:42:58.234Z,1.30
2023-05-15T14:45:27.227Z,3.00
2023-05-15T14:47:56.280Z,2.00
2023-05-15T14:50:25.513Z,2.00
2023-05-15T14:52:54.126Z,1.80
2023-05-15T14:55:22.544Z,1.70
2023-05-15T14:57:51.001Z,1.20
2023-05-15T15:00:19.583Z,1.60
2023-05-15T15:02:48.207Z,1.30
2023-05-15T15:05:17.102Z,1.10
2023-05-15T15:08:01.283Z,1.20
2023-05-15T15:10:30.690Z,1.40
2023-05-15T15:12:59.962Z,1.50
2023-05-15T15:15:29.308Z,1.40
2023-05-15T15:17:58.263Z,1.80
2023-05-15T15:20:27.797Z,1.40
2023-05-15T15:22:56.958Z,1.50
2023-05-15T15:25:25.358Z,1.30
2023-05-15T15:27:53.524Z,1.10
2023-05-15T15:30:21.792Z,1.30
2023-05-15T15:32:58.107Z,1.30
2023-05-15T15:35:26.580Z,1.70
2023-05-15T15:37:55.522Z,1.70
2023-05-15T15:40:24.601Z,1.60
2023-05-15T15:42:54.401Z,1.50
2023-05-15T15:45:23.043Z,1.40
2023-05-15T15:47:51.482Z,1.40
2023-05-15T15:50:19.916Z,1.70
2023-05-15T15:52:48.083Z,1.30
2023-05-15T15:55:16.308Z,1.90
2023-05-15T15:57:44.487Z,1.20
2023-05-15T16:00:13.990Z,1.70
2023-05-15T16:02:42.326Z,1.40
2023-05-15T16:05:11.190Z,1.80
2023-05-15T16:07:39.646Z,2.30
2023-05-15T16:10:12.812Z,1.50
2023-05-15T16:12:42.729Z,1.30
2023-05-15T16:17:44.421Z,1.60
2023-05-15T16:20:13.015Z,1.40
2023-05-15T16:22:41.994Z,1.80
2023-05-15T16:25:10.553Z,2.40
2023-05-15T16:27:38.932Z,2.20
2023-05-15T16:30:08.175Z,2.60
2023-05-15T16:32:36.582Z,5.20
2023-05-15T16:35:05.590Z,1.60
2023-05-15T16:37:34.261Z,1.80
2023-05-15T16:40:04.111Z,2.00
2023-05-15T16:42:36.722Z,2.00
2023-05-15T16:45:06.490Z,1.50
2023-05-15T16:47:37.423Z,1.60
2023-05-15T16:50:07.257Z,1.70
2023-05-15T16:52:36.089Z,1.90
2023-05-15T16:55:04.790Z,2.10
2023-05-15T16:57:33.206Z,1.90
2023-05-15T17:00:01.525Z,1.80
2023-05-15T17:02:29.888Z,3.00
2023-05-15T17:04:58.560Z,1.80
2023-05-15T17:07:29.118Z,1.60
2023-05-15T17:09:57.549Z,1.70
2023-05-15T17:12:25.968Z,1.70
2023-05-15T17:14:54.257Z,1.30
2023-05-15T17:17:23.621Z,1.30
2023-05-15T17:19:53.150Z,1.60
2023-05-15T17:22:22.351Z,1.70
2023-05-15T17:24:52.419Z,1.80
2023-05-15T17:27:21.217Z,1.80
2023-05-15T17:29:49.580Z,1.90
2023-05-15T17:32:18.663Z,2.30
2023-05-15T17:34:47.486Z,2.10
2023-05-15T17:37:15.858Z,2.00
2023-05-15T17:39:44.171Z,2.20
2023-05-15T17:42:12.853Z,14.80
2023-05-15T17:44:57.374Z,9.10
2023-05-15T17:47:29.102Z,5.10
2023-05-15T17:49:57.645Z,4.20
2023-05-15T17:52:26.056Z,2.90
2023-05-15T17:54:54.503Z,2.80
2023-05-15T17:57:22.815Z,2.20
2023-05-15T17:59:51.265Z,1.90
2023-05-15T18:02:19.546Z,2.00
2023-05-15T18:04:47.774Z,1.90
2023-05-15T18:07:16.168Z,1.90
2023-05-15T18:09:44.435Z,2.20
2023-05-15T18:12:12.670Z,2.40
2023-05-15T18:14:41.145Z,2.70
2023-05-15T18:17:09.433Z,2.10
2023-05-15T18:19:39.220Z,1.60
2023-05-15T18:22:07.482Z,1.70
2023-05-15T18:24:35.766Z,3.10
2023-05-15T18:27:04.914Z,3.50
2023-05-15T18:29:33.358Z,3.00
2023-05-15T18:32:01.570Z,2.80
2023-05-15T18:34:29.953Z,2.60
2023-05-15T18:36:58.453Z,1.80
2023-05-15T18:39:27.059Z,1.60
2023-05-15T18:41:55.426Z,2.70
2023-05-15T18:44:23.706Z,2.40
2023-05-15T18:46:51.977Z,1.90
2023-05-15T18:49:20.189Z,2.20
2023-05-15T18:51:48.409Z,2.20
2023-05-15T18:54:16.573Z,2.00
2023-05-15T18:56:44.763Z,1.80
2023-05-15T18:59:13.021Z,2.50
2023-05-15T19:01:41.337Z,2.60
2023-05-15T19:04:09.715Z,2.50
2023-05-15T19:06:38.014Z,2.30
2023-05-15T19:09:06.262Z,2.20
2023-05-15T19:11:34.460Z,2.50
2023-05-15T19:14:02.723Z,2.70
2023-05-15T19:16:31.079Z,2.00
2023-05-15T19:18:59.612Z,2.40
2023-05-15T19:21:27.909Z,2.90
2023-05-15T19:23:56.254Z,2.20
2023-05-15T19:26:24.587Z,2.20
2023-05-15T19:28:53.281Z,2.30
2023-05-15T19:33:56.264Z,2.20
2023-05-15T19:36:24.627Z,2.40
2023-05-15T19:38:53.188Z,2.60
2023-05-15T19:41:22.856Z,2.20
2023-05-15T19:43:51.541Z,2.10
2023-05-15T19:46:20.153Z,2.50
2023-05-15T19:48:48.386Z,2.10
2023-05-15T19:51:16.881Z,2.70
2023-05-15T19:53:45.809Z,2.80
2023-05-15T19:56:14.289Z,2.10
2023-05-15T19:58:42.635Z,2.20
2023-05-15T20:01:10.897Z,1.80
2023-05-15T20:03:39.456Z,2.40
2023-05-15T20:06:07.844Z,2.10
2023-05-15T20:08:36.115Z,2.30
2023-05-15T20:11:04.772Z,2.30
2023-05-15T20:13:33.056Z,2.00
2023-05-15T20:16:07.106Z,2.20
2023-05-15T20:18:35.965Z,2.40
2023-05-15T20:21:04.181Z,2.40
2023-05-15T20:23:32.941Z,2.30
2023-05-15T20:26:01.296Z,2.60
2023-05-15T20:28:29.532Z,2.70
2023-05-15T20:30:57.959Z,2.50
2023-05-15T20:33:26.276Z,2.40
2023-05-15T20:35:54.969Z,2.30
2023-05-15T20:38:25.647Z,2.80
2023-05-15T20:40:54.469Z,2.60
2023-05-15T20:43:23.530Z,2.20
2023-05-15T20:45:52.196Z,2.40
2023-05-15T20:48:20.425Z,2.50
2023-05-15T20:50:48.601Z,2.50
2023-05-15T20:53:16.911Z,2.60
2023-05-15T20:55:45.143Z,2.10
2023-05-15T20:58:13.358Z,2.20
2023-05-15T21:00:41.625Z,2.20
2023-05-15T21:03:11.252Z,2.60
2023-05-15T21:05:39.590Z,2.10
2023-05-15T21:08:08.204Z,2.60
2023-05-15T21:10:36.408Z,2.60
2023-05-15T21:13:05.073Z,2.60
2023-05-15T21:15:33.430Z,2.00
2023-05-15T21:18:01.814Z,2.30
2023-05-15T21:20:30.119Z,2.40
2023-05-15T21:22:58.328Z,2.30
2023-05-15T21:25:26.552Z,1.90
2023-05-15T21:27:55.519Z,2.30
2023-05-15T21:30:23.802Z,2.00
2023-05-15T21:32:52.042Z,2.50
2023-05-15T21:35:20.326Z,2.40
2023-05-15T21:37:48.684Z,2.80
2023-05-15T21:40:17.037Z,3.10
2023-05-15T21:42:46.153Z,2.40
2023-05-15T21:45:14.357Z,2.50
2023-05-15T21:47:42.582Z,2.60
2023-05-15T21:50:11.109Z,3.30
2023-05-15T21:52:39.441Z,2.50
2023-05-15T21:55:08.458Z,3.40
2023-05-15T21:57:36.716Z,3.10
2023-05-15T22:00:07.676Z,3.10
2023-05-15T22:02:35.961Z,3.20
2023-05-15T22:05:04.520Z,2.90
2023-05-15T22:07:32.692Z,2.70
2023-05-15T22:10:01.736Z,3.30
2023-05-15T22:12:30.317Z,2.70
2023-05-15T22:14:59.680Z,2.90
2023-05-15T22:17:29.459Z,3.20
2023-05-15T22:20:08.151Z,3.30
2023-05-15T22:22:36.719Z,3.60
2023-05-15T22:25:05.915Z,2.80
2023-05-15T22:27:35.203Z,3.00
2023-05-15T22:30:04.462Z,3.50
2023-05-15T22:32:33.347Z,2.90
2023-05-15T22:35:02.357Z,3.10
2023-05-15T22:37:30.777Z,2.70
2023-05-15T22:39:59.053Z,3.10
2023-05-15T22:42:30.115Z,2.20
2023-05-15T22:44:58.605Z,3.00
2023-05-15T22:47:28.539Z,2.80
2023-05-15T22:49:57.106Z,2.30
2023-05-15T22:52:25.831Z,2.80
2023-05-15T22:54:54.049Z,2.40
2023-05-15T22:57:23.316Z,2.50
2023-05-15T22:59:51.699Z,3.10
2023-05-15T23:02:19.895Z,2.60
2023-05-15T23:04:48.270Z,2.90
2023-05-15T23:07:17.426Z,3.00
2023-05-15T23:09:45.719Z,2.80
